createdAt,value
2018-05-08T00:00:19.598Z,101770.66
2018-05-08T00:03:22.907Z,101771.12
2018-05-08T00:06:26.212Z,101764.08
2018-05-08T00:09:30.293Z,101760.44
2018-05-08T00:12:33.609Z,101759.20
2018-05-08T00:15:36.925Z,101758.42
2018-05-08T00:18:40.984Z,101753.45
2018-05-08T00:21:44.289Z,101751.91
2018-05-08T00:24:47.597Z,101749.28
2018-05-08T00:27:50.925Z,101741.49
2018-05-08T00:30:54.994Z,101742.67
2018-05-08T00:33:58.328Z,101743.55
2018-05-08T00:37:02.402Z,101741.33
2018-05-08T00:40:05.726Z,101735.05
2018-05-08T00:43:09.057Z,101739.16
2018-05-08T00:46:12.356Z,101733.74
2018-05-08T00:49:15.678Z,101727.19
2018-05-08T00:52:18.986Z,101735.02
2018-05-08T00:55:22.310Z,101733.31
2018-05-08T00:58:25.605Z,101740.81
2018-05-08T01:01:28.943Z,101729.91
2018-05-08T01:04:32.250Z,101736.29
2018-05-08T01:07:35.588Z,101734.47
2018-05-08T01:10:38.889Z,101741.82
2018-05-08T01:13:42.221Z,101735.92
2018-05-08T01:16:45.521Z,101735.36
2018-05-08T01:19:48.833Z,101734.08
2018-05-08T01:22:52.141Z,101727.81
2018-05-08T01:25:56.239Z,101729.37
2018-05-08T01:28:59.548Z,101732.15
2018-05-08T01:32:02.985Z,101726.31
2018-05-08T01:35:06.289Z,101724.60
2018-05-08T01:38:09.613Z,101720.84
2018-05-08T01:41:12.922Z,101719.92
2018-05-08T01:44:16.241Z,101712.53
2018-05-08T01:47:19.553Z,101715.45
2018-05-08T01:50:22.874Z,101712.40
2018-05-08T01:53:26.937Z,101715.16
2018-05-08T01:56:30.258Z,101714.16
2018-05-08T01:59:33.553Z,101718.30
2018-05-08T02:02:36.858Z,101718.04
2018-05-08T02:05:40.190Z,101724.59
2018-05-08T02:08:44.253Z,101719.25
2018-05-08T02:11:47.587Z,101719.84
2018-05-08T02:14:51.658Z,101714.83
2018-05-08T02:17:54.985Z,101704.16
2018-05-08T02:20:58.288Z,101712.38
2018-05-08T02:24:01.610Z,101708.86
2018-05-08T02:27:05.673Z,101700.99
2018-05-08T02:30:09.002Z,101708.95
2018-05-08T02:33:12.304Z,101704.27
2018-05-08T02:36:16.389Z,101707.32
2018-05-08T02:39:19.697Z,101702.85
2018-05-08T02:42:23.021Z,101698.34
2018-05-08T02:45:27.089Z,101698.78
2018-05-08T02:48:30.429Z,101697.51
2018-05-08T02:51:34.493Z,101696.48
2018-05-08T02:54:37.813Z,101698.56
2018-05-08T02:57:41.120Z,101698.44
2018-05-08T03:00:44.444Z,101702.23
2018-05-08T03:03:47.754Z,101702.88
2018-05-08T03:06:51.076Z,101701.81
2018-05-08T03:09:55.185Z,101703.08
2018-05-08T03:12:58.514Z,101706.97
2018-05-08T03:16:03.143Z,101703.48
2018-05-08T03:19:06.472Z,101709.79
2018-05-08T03:22:09.802Z,101708.05
2018-05-08T03:25:13.173Z,101709.30
2018-05-08T03:28:16.444Z,101711.10
2018-05-08T03:31:20.525Z,101708.17
2018-05-08T03:34:23.881Z,101708.94
2018-05-08T03:37:27.188Z,101708.73
2018-05-08T03:40:30.514Z,101713.77
2018-05-08T03:43:33.821Z,101704.14
2018-05-08T03:46:37.140Z,101701.64
2018-05-08T03:49:41.225Z,101700.70
2018-05-08T03:52:44.528Z,101700.83
2018-05-08T03:55:47.855Z,101690.53
2018-05-08T03:58:51.929Z,101693.16
2018-05-08T04:02:13.210Z,101690.22
2018-05-08T04:05:34.318Z,101690.09
2018-05-08T04:08:37.626Z,101690.00
2018-05-08T04:11:41.014Z,101686.73
2018-05-08T04:14:44.289Z,101684.63
2018-05-08T04:17:48.365Z,101694.59
2018-05-08T04:20:51.688Z,101684.41
2018-05-08T04:23:55.010Z,101685.13
2018-05-08T04:26:58.338Z,101683.84
2018-05-08T04:30:01.635Z,101682.36
2018-05-08T04:33:04.973Z,101680.63
2018-05-08T04:36:08.298Z,101679.09
2018-05-08T04:39:11.593Z,101668.04
2018-05-08T04:42:14.908Z,101671.42
2018-05-08T04:45:18.228Z,101665.09
2018-05-08T04:48:21.550Z,101662.12
2018-05-08T04:51:24.873Z,101668.95
2018-05-08T04:54:28.177Z,101656.68
2018-05-08T04:57:31.505Z,101653.70
2018-05-08T05:00:34.826Z,101650.71
2018-05-08T05:03:38.141Z,101651.76
2018-05-08T05:06:41.458Z,101652.66
2018-05-08T05:09:44.761Z,101650.59
2018-05-08T05:12:48.093Z,101646.09
2018-05-08T05:15:51.401Z,101648.34
2018-05-08T05:18:54.735Z,101642.92
2018-05-08T05:21:58.837Z,101645.38
2018-05-08T05:25:02.158Z,101643.07
2018-05-08T05:28:05.489Z,101644.34
2018-05-08T05:31:08.794Z,101640.54
2018-05-08T05:34:12.116Z,101637.14
2018-05-08T05:37:15.425Z,101632.96
2018-05-08T05:40:18.745Z,101634.75
2018-05-08T05:43:22.085Z,101633.09
2018-05-08T05:46:25.393Z,101633.50
2018-05-08T05:49:28.709Z,101626.66
2018-05-08T05:52:32.025Z,101627.71
2018-05-08T05:55:36.104Z,101620.47
2018-05-08T05:58:39.429Z,101625.61
2018-05-08T06:01:42.734Z,101631.16
2018-05-08T06:04:46.822Z,101628.17
2018-05-08T06:07:50.146Z,101625.63
2018-05-08T06:10:53.457Z,101624.41
2018-05-08T06:13:56.806Z,101621.72
2018-05-08T06:17:00.109Z,101617.45
2018-05-08T06:20:03.437Z,101610.44
2018-05-08T06:23:06.759Z,101610.45
2018-05-08T06:26:10.069Z,101611.77
2018-05-08T06:29:13.392Z,101604.77
2018-05-08T06:32:16.694Z,101610.57
2018-05-08T06:35:20.012Z,101604.19
2018-05-08T06:38:24.077Z,101607.55
2018-05-08T06:41:27.398Z,101608.81
2018-05-08T06:44:30.754Z,101604.66
2018-05-08T06:47:34.053Z,101602.81
2018-05-08T06:50:37.373Z,101595.91
2018-05-08T06:53:40.680Z,101589.95
2018-05-08T06:56:44.013Z,101594.13
2018-05-08T06:59:47.325Z,101600.12
2018-05-08T07:02:50.651Z,101599.48
2018-05-08T07:05:53.970Z,101590.84
2018-05-08T07:08:57.300Z,101585.17
2018-05-08T07:12:00.597Z,101589.55
2018-05-08T07:15:03.921Z,101590.53
2018-05-08T07:18:07.233Z,101586.39
2018-05-08T07:21:10.561Z,101579.09
2018-05-08T07:24:13.888Z,101578.82
2018-05-08T07:27:17.198Z,101576.17
2018-05-08T07:30:20.513Z,101576.86
2018-05-08T07:33:23.817Z,101579.72
2018-05-08T07:36:27.147Z,101576.09
2018-05-08T07:39:31.220Z,101577.16
2018-05-08T07:42:34.537Z,101564.84
2018-05-08T07:45:37.857Z,101578.28
2018-05-08T07:48:41.160Z,101572.02
2018-05-08T07:51:45.268Z,101573.70
2018-05-08T07:54:48.585Z,101569.19
2018-05-08T07:57:51.909Z,101570.06
2018-05-08T08:00:56.005Z,101567.23
2018-05-08T08:03:59.309Z,101562.55
2018-05-08T08:07:02.620Z,101562.81
2018-05-08T08:10:05.937Z,101561.73
2018-05-08T08:13:09.241Z,101562.97
2018-05-08T08:16:12.561Z,101565.87
2018-05-08T08:19:16.715Z,101554.66
2018-05-08T08:22:20.038Z,101559.48
2018-05-08T08:25:23.345Z,101554.76
2018-05-08T08:28:26.668Z,101554.16
2018-05-08T08:31:30.742Z,101543.44
2018-05-08T08:34:34.070Z,101544.64
2018-05-08T08:37:37.373Z,101539.77
2018-05-08T08:40:41.467Z,101534.18
2018-05-08T08:43:44.781Z,101536.75
2018-05-08T08:46:48.862Z,101534.48
2018-05-08T08:49:52.169Z,101524.69
2018-05-08T08:52:55.488Z,101526.83
2018-05-08T08:55:59.650Z,101520.51
2018-05-08T08:59:02.900Z,101520.31
2018-05-08T09:02:06.990Z,101522.33
2018-05-08T09:05:10.294Z,101523.14
2018-05-08T09:08:13.610Z,101519.48
2018-05-08T09:11:17.701Z,101514.23
2018-05-08T09:14:21.005Z,101510.21
2018-05-08T09:17:24.304Z,101505.24
2018-05-08T09:20:27.620Z,101503.81
2018-05-08T09:23:31.685Z,101501.36
2018-05-08T09:26:35.006Z,101495.63
2018-05-08T09:29:38.354Z,101496.73
2018-05-08T09:32:42.421Z,101492.94
2018-05-08T09:35:45.737Z,101486.23
2018-05-08T09:38:49.822Z,101492.16
2018-05-08T09:41:53.170Z,101480.58
2018-05-08T09:44:56.469Z,101482.20
2018-05-08T09:47:59.788Z,101479.42
2018-05-08T09:51:03.106Z,101462.41
2018-05-08T09:54:06.532Z,101472.44
2018-05-08T09:57:09.749Z,101466.94
2018-05-08T10:00:13.065Z,101461.93
2018-05-08T10:03:16.385Z,101457.53
2018-05-08T10:06:19.689Z,101453.64
2018-05-08T10:09:23.031Z,101453.17
2018-05-08T10:12:26.342Z,101446.09
2018-05-08T10:15:29.682Z,101438.00
2018-05-08T10:18:32.994Z,101432.80
2018-05-08T10:21:36.317Z,101434.06
2018-05-08T10:24:39.620Z,101424.85
2018-05-08T10:27:42.938Z,101425.87
2018-05-08T10:30:46.241Z,101415.84
2018-05-08T10:33:49.569Z,101418.23
2018-05-08T10:36:52.872Z,101420.03
2018-05-08T10:39:56.214Z,101403.01
2018-05-08T10:42:59.516Z,101401.47
2018-05-08T10:46:02.845Z,101397.77
2018-05-08T10:49:06.154Z,101405.20
2018-05-08T10:52:09.484Z,101397.41
2018-05-08T10:55:12.797Z,101392.44
2018-05-08T10:58:16.125Z,101385.31
2018-05-08T11:01:19.426Z,101379.40
2018-05-08T11:04:22.747Z,101377.47
2018-05-08T11:07:26.826Z,101373.88
2018-05-08T11:10:30.151Z,101378.92
2018-05-08T11:13:33.455Z,101375.86
2018-05-08T11:16:37.550Z,101374.61
2018-05-08T11:19:40.878Z,101370.33
2018-05-08T11:22:44.181Z,101366.27
2018-05-08T11:25:47.486Z,101369.10
2018-05-08T11:28:50.805Z,101362.26
2018-05-08T11:31:54.104Z,101363.76
2018-05-08T11:34:57.417Z,101357.30
2018-05-08T11:38:00.713Z,101360.55
2018-05-08T11:41:04.037Z,101349.91
2018-05-08T11:44:07.354Z,101344.24
2018-05-08T11:47:11.437Z,101348.17
2018-05-08T11:50:14.762Z,101343.13
2018-05-08T11:53:18.065Z,101340.08
2018-05-08T11:56:21.402Z,101336.60
2018-05-08T11:59:24.710Z,101334.09
2018-05-08T12:02:28.030Z,101328.46
2018-05-08T12:05:31.356Z,101340.28
2018-05-08T12:08:34.661Z,101323.62
2018-05-08T12:11:37.985Z,101321.95
2018-05-08T12:14:41.325Z,101321.56
2018-05-08T12:17:44.626Z,101315.89
2018-05-08T12:20:48.696Z,101301.30
2018-05-08T12:23:52.041Z,101301.19
2018-05-08T12:26:56.105Z,101305.65
2018-05-08T12:29:59.427Z,101308.95
2018-05-08T12:33:02.748Z,101305.37
2018-05-08T12:36:06.815Z,101302.27
2018-05-08T12:39:10.159Z,101303.28
2018-05-08T12:42:14.299Z,101302.23
2018-05-08T12:45:17.576Z,101293.48
2018-05-08T12:48:21.645Z,101291.74
2018-05-08T12:51:24.962Z,101291.54
2018-05-08T12:54:28.269Z,101284.83
2018-05-08T12:57:32.349Z,101283.27
2018-05-08T13:00:35.650Z,101270.91
2018-05-08T13:03:38.974Z,101269.62
2018-05-08T13:06:43.073Z,101268.59
2018-05-08T13:09:46.378Z,101271.52
2018-05-08T13:12:49.700Z,101276.10
2018-05-08T13:15:53.009Z,101264.31
2018-05-08T13:18:56.322Z,101258.39
2018-05-08T13:21:59.644Z,101249.07
2018-05-08T13:25:02.960Z,101249.73
2018-05-08T13:28:06.274Z,101240.55
2018-05-08T13:31:10.388Z,101230.50
2018-05-08T13:34:14.449Z,101239.19
2018-05-08T13:37:17.761Z,101228.89
2018-05-08T13:40:21.078Z,101224.83
2018-05-08T13:43:24.404Z,101220.96
2018-05-08T13:46:27.725Z,101225.45
2018-05-08T13:49:31.026Z,101212.89
2018-05-08T13:52:34.349Z,101221.23
2018-05-08T13:55:37.658Z,101217.94
2018-05-08T13:58:40.978Z,101215.25
2018-05-08T14:01:45.054Z,101210.11
2018-05-08T14:04:48.389Z,101206.70
2018-05-08T14:07:52.477Z,101201.75
2018-05-08T14:10:55.786Z,101205.20
2018-05-08T14:13:59.874Z,101201.48
2018-05-08T14:17:03.189Z,101208.09
2018-05-08T14:20:07.298Z,101197.90
2018-05-08T14:23:10.601Z,101205.86
2018-05-08T14:26:13.922Z,101201.09
2018-05-08T14:29:17.985Z,101202.87
2018-05-08T14:32:21.313Z,101198.23
2018-05-08T14:35:24.618Z,101193.41
2018-05-08T14:38:28.715Z,101181.34
2018-05-08T14:41:32.033Z,101182.87
2018-05-08T14:44:36.114Z,101184.47
2018-05-08T14:47:39.441Z,101180.23
2018-05-08T14:50:43.510Z,101184.12
2018-05-08T14:53:46.834Z,101189.37
2018-05-08T14:56:50.145Z,101172.56
2018-05-08T14:59:54.234Z,101172.22
2018-05-08T15:02:57.571Z,101165.97
2018-05-08T15:06:00.879Z,101166.80
2018-05-08T15:09:04.225Z,101161.19
2018-05-08T15:12:07.530Z,101159.00
2018-05-08T15:15:10.877Z,101155.16
2018-05-08T15:18:14.182Z,101159.41
2018-05-08T15:21:17.508Z,101151.97
2018-05-08T15:24:20.821Z,101151.50
2018-05-08T15:27:24.152Z,101144.98
2018-05-08T15:30:27.462Z,101141.56
2018-05-08T15:33:30.781Z,101134.47
2018-05-08T15:36:34.106Z,101135.45
2018-05-08T15:39:37.424Z,101135.72
2018-05-08T15:42:43.323Z,101131.16
2018-05-08T15:45:46.646Z,101127.06
2018-05-08T15:48:49.966Z,101126.73
2018-05-08T15:51:54.049Z,101116.27
2018-05-08T15:54:57.350Z,101124.39
2018-05-08T15:58:00.694Z,101113.53
2018-05-08T16:01:03.993Z,101120.03
2018-05-08T16:04:07.316Z,101123.70
2018-05-08T16:07:10.613Z,101116.59
2018-05-08T16:10:13.950Z,101115.93
2018-05-08T16:13:17.249Z,101117.09
2018-05-08T16:16:20.570Z,101117.67
2018-05-08T16:19:23.873Z,101113.84
2018-05-08T16:22:27.206Z,101111.17
2018-05-08T16:25:30.517Z,101112.39
2018-05-08T16:28:33.845Z,101109.46
2018-05-08T16:31:37.950Z,101103.95
2018-05-08T16:34:42.014Z,101104.75
2018-05-08T16:37:45.338Z,101105.73
2018-05-08T16:40:48.637Z,101103.68
2018-05-08T16:43:51.962Z,101101.80
2018-05-08T16:46:56.037Z,101092.92
2018-05-08T16:49:59.361Z,101090.72
2018-05-08T16:53:02.679Z,101096.77
2018-05-08T16:56:06.013Z,101092.00
2018-05-08T16:59:10.178Z,101091.87
2018-05-08T17:02:14.266Z,101087.18
2018-05-08T17:05:17.609Z,101096.98
2018-05-08T17:08:20.905Z,101082.93
2018-05-08T17:11:24.226Z,101089.80
2018-05-08T17:14:27.551Z,101082.34
2018-05-08T17:17:30.873Z,101084.05
2018-05-08T17:20:34.190Z,101078.59
2018-05-08T17:23:37.489Z,101077.66
2018-05-08T17:26:40.805Z,101072.36
2018-05-08T17:29:44.134Z,101076.95
2018-05-08T17:32:47.450Z,101073.41
2018-05-08T17:35:50.746Z,101076.78
2018-05-08T17:38:54.057Z,101071.73
2018-05-08T17:41:58.124Z,101075.67
2018-05-08T17:45:01.465Z,101070.04
2018-05-08T17:48:04.777Z,101074.45
2018-05-08T17:51:08.092Z,101066.92
2018-05-08T17:54:11.398Z,101067.25
2018-05-08T17:57:14.719Z,101075.98
2018-05-08T18:00:18.033Z,101077.43
2018-05-08T18:03:21.353Z,101070.97
2018-05-08T18:06:25.417Z,101065.47
2018-05-08T18:09:28.745Z,101068.24
2018-05-08T18:12:32.049Z,101075.85
2018-05-08T18:15:36.143Z,101069.95
2018-05-08T18:18:39.437Z,101065.53
2018-05-08T18:21:42.762Z,101067.89
2018-05-08T18:24:46.829Z,101061.16
2018-05-08T18:27:50.145Z,101059.09
2018-05-08T18:30:53.482Z,101061.03
2018-05-08T18:33:56.785Z,101059.80
2018-05-08T18:37:00.105Z,101063.23
2018-05-08T18:40:03.410Z,101071.65
2018-05-08T18:43:06.737Z,101065.18
2018-05-08T18:46:10.038Z,101063.24
2018-05-08T18:49:14.220Z,101068.71
2018-05-08T18:52:17.484Z,101065.67
2018-05-08T18:55:20.794Z,101071.17
2018-05-08T18:58:24.113Z,101072.13
2018-05-08T19:01:27.421Z,101080.66
2018-05-08T19:04:30.737Z,101066.59
2018-05-08T19:07:34.038Z,101074.97
2018-05-08T19:10:38.122Z,101070.13
2018-05-08T19:13:41.421Z,101073.81
2018-05-08T19:16:44.738Z,101079.42
2018-05-08T19:19:53.607Z,101075.27
2018-05-08T19:22:56.929Z,101082.27
2018-05-08T19:26:00.251Z,101083.20
2018-05-08T19:29:09.091Z,101080.53
2018-05-08T19:32:13.179Z,101077.33
2018-05-08T19:35:21.805Z,101081.16
2018-05-08T19:38:25.109Z,101081.16
2018-05-08T19:41:28.426Z,101076.58
2018-05-08T19:44:32.513Z,101079.70
2018-05-08T19:47:35.815Z,101082.41
2018-05-08T19:50:39.137Z,101082.67
2018-05-08T19:53:43.204Z,101086.07
2018-05-08T19:56:46.526Z,101083.55
2018-05-08T19:59:49.862Z,101087.20
2018-05-08T20:02:53.173Z,101078.11
2018-05-08T20:05:56.502Z,101075.47
2018-05-08T20:08:59.821Z,101078.55
2018-05-08T20:12:03.121Z,101085.36
2018-05-08T20:15:07.223Z,101076.80
2018-05-08T20:18:10.525Z,101079.80
2018-05-08T20:21:13.857Z,101084.38
2018-05-08T20:24:17.164Z,101080.50
2018-05-08T20:27:20.490Z,101073.54
2018-05-08T20:30:23.787Z,101077.34
2018-05-08T20:33:27.174Z,101072.25
2018-05-08T20:36:30.477Z,101073.03
2018-05-08T20:39:33.834Z,101070.65
2018-05-08T20:42:37.140Z,101067.20
2018-05-08T20:45:40.462Z,101063.61
2018-05-08T20:48:43.790Z,101071.55
2018-05-08T20:51:47.109Z,101069.22
2018-05-08T20:54:51.201Z,101066.84
2018-05-08T20:57:54.510Z,101065.61
2018-05-08T21:00:58.623Z,101064.08
2018-05-08T21:04:01.901Z,101065.29
2018-05-08T21:07:05.222Z,101064.17
2018-05-08T21:10:08.537Z,101059.36
2018-05-08T21:13:11.837Z,101066.08
2018-05-08T21:16:15.152Z,101063.59
2018-05-08T21:19:18.472Z,101062.56
2018-05-08T21:22:21.782Z,101067.90
2018-05-08T21:25:25.101Z,101060.87
2018-05-08T21:28:34.733Z,101062.23
2018-05-08T21:31:38.061Z,101056.69
2018-05-08T21:34:41.368Z,101053.63
2018-05-08T21:37:44.691Z,101053.45
2018-05-08T21:40:48.004Z,101057.50
2018-05-08T21:43:51.333Z,101052.84
2018-05-08T21:46:55.424Z,101047.30
2018-05-08T21:49:58.727Z,101050.30
2018-05-08T21:53:02.841Z,101050.28
2018-05-08T21:56:06.142Z,101049.70
2018-05-08T21:59:10.225Z,101049.84
2018-05-08T22:02:13.542Z,101054.86
2018-05-08T22:05:16.860Z,101050.22
2018-05-08T22:08:20.941Z,101051.84
2018-05-08T22:11:24.254Z,101047.57
2018-05-08T22:14:27.555Z,101046.30
2018-05-08T22:17:31.637Z,101047.03
2018-05-08T22:20:34.961Z,101046.59
2018-05-08T22:23:38.257Z,101049.57
2018-05-08T22:26:41.576Z,101049.24
2018-05-08T22:29:45.653Z,101040.83
2018-05-08T22:32:48.958Z,101037.77
2018-05-08T22:35:52.277Z,101032.22
2018-05-08T22:38:56.344Z,101032.90
2018-05-08T22:41:59.661Z,101036.45
2018-05-08T22:45:02.965Z,101030.48
2018-05-08T22:48:07.077Z,101035.47
2018-05-08T22:51:10.384Z,101034.08
2018-05-08T22:54:14.469Z,101036.55
2018-05-08T22:57:17.772Z,101046.50
2018-05-08T23:00:21.790Z,101043.59
2018-05-08T23:03:25.112Z,101045.31
2018-05-08T23:06:29.179Z,101038.29
2018-05-08T23:09:32.517Z,101038.13
2018-05-08T23:12:36.585Z,101041.54
2018-05-08T23:15:39.904Z,101041.20
2018-05-08T23:18:43.226Z,101029.80
2018-05-08T23:21:47.299Z,101033.61
2018-05-08T23:24:50.609Z,101035.00
2018-05-08T23:27:53.927Z,101028.75
2018-05-08T23:30:57.245Z,101027.88
2018-05-08T23:34:01.334Z,101022.20
2018-05-08T23:37:04.638Z,101030.92
2018-05-08T23:40:08.736Z,101025.50
2018-05-08T23:43:12.041Z,101034.09
2018-05-08T23:46:15.353Z,101021.84
2018-05-08T23:49:19.438Z,101025.67
2018-05-08T23:52:22.757Z,101023.55
2018-05-08T23:55:26.056Z,101029.58
2018-05-08T23:58:30.133Z,101029.94
